Terminal Aerodrome Forecast
Issued by NWS Austin/San Antonio, TX

Home | Current Version | Previous Version | Text Only | Print | Product List | Glossary On
Versions: 1 2 3 4 5 6 7 8 9 10 11 12 13 14 15 16 17 18 19
786
FTUS44 KEWX 091721
TAFAUS
TAF
KAUS 091721Z 0918/1024 03008KT P6SM BKN080
     FM100400 VRB03KT P6SM BKN060
     FM101700 13004KT P6SM OVC025=

USA.gov is the U.S. government's official web portal to all federal, state and local government web resources and services.